Terminal Aerodrome Forecast
Issued by NWS Charleston, WV

Current Version | Previous Version | Text Only | Print | Product List | Glossary Off
Versions: 1 2 3 4 5 6 7 8 9 10 11 12 13 14 15 16 17 18 19 20 21 22 23 24 25 26

234
FTUS41 KRLX 021809 RRA
TAFBKW
TAF
KBKW 021809Z 0218/0318 25010G18KT P6SM VCTS BKN040CB
     FM021900 25011G18KT 6SM TSRA BKN040CB
     FM022100 26011G19KT 3SM TSRA BKN035CB
     FM030000 29006KT 2SM TSRA OVC025CB
     FM030300 25003KT 1SM SHRA BR VCTS SCT001 OVC007CB
     FM030600 VRB03KT 1SM SHRA BR OVC003
     FM030800 29004KT 1/2SM FG OVC003
     FM031200 31004KT 1SM BR OVC006
     FM031600 29006KT P6SM BKN015=

USA.gov is the U.S. government's official web portal to all federal, state and local government web resources and services.